createdAt,value
2018-07-25T00:00:35.376Z,10.23
2018-07-25T00:03:05.371Z,10.60
2018-07-25T00:05:35.219Z,10.77
2018-07-25T00:08:05.139Z,11.37
2018-07-25T00:10:40.073Z,11.27
2018-07-25T00:13:09.907Z,11.17
2018-07-25T00:15:39.755Z,10.53
2018-07-25T00:18:09.604Z,10.53
2018-07-25T00:20:39.408Z,9.90
2018-07-25T00:23:09.207Z,9.80
2018-07-25T00:25:39.120Z,9.77
2018-07-25T00:28:09.200Z,10.63
2018-07-25T00:30:39.004Z,9.53
2018-07-25T00:33:08.839Z,10.07
2018-07-25T00:35:38.636Z,11.00
2018-07-25T00:38:08.531Z,11.07
2018-07-25T00:40:38.483Z,10.67
2018-07-25T00:43:08.299Z,10.63
2018-07-25T00:45:38.064Z,10.20
2018-07-25T00:48:08.212Z,10.37
2018-07-25T00:50:37.979Z,10.63
2018-07-25T00:53:07.795Z,10.27
2018-07-25T00:55:37.589Z,10.23
2018-07-25T00:58:07.399Z,11.07
2018-07-25T01:00:37.341Z,11.33
2018-07-25T01:03:07.195Z,11.33
2018-07-25T01:05:37.012Z,10.93
2018-07-25T01:08:06.944Z,11.53
2018-07-25T01:10:40.972Z,11.97
2018-07-25T01:13:11.523Z,11.50
2018-07-25T01:15:41.568Z,11.03
2018-07-25T01:18:11.387Z,11.20
2018-07-25T01:20:41.235Z,11.60
2018-07-25T01:23:11.034Z,10.73
2018-07-25T01:25:40.798Z,10.63
2018-07-25T01:28:10.624Z,10.97
2018-07-25T01:30:40.376Z,11.23
2018-07-25T01:33:10.180Z,11.43
2018-07-25T01:35:39.989Z,11.43
2018-07-25T01:38:09.836Z,11.87
2018-07-25T01:40:39.698Z,11.93
2018-07-25T01:43:09.475Z,11.53
2018-07-25T01:45:39.328Z,11.73
2018-07-25T01:48:09.186Z,11.30
2018-07-25T01:50:39.071Z,10.77
2018-07-25T01:53:08.987Z,10.73
2018-07-25T01:55:38.775Z,11.27
2018-07-25T01:58:08.886Z,10.93
2018-07-25T02:00:38.770Z,11.10
2018-07-25T02:03:08.715Z,10.93
2018-07-25T02:05:38.462Z,11.23
2018-07-25T02:08:08.303Z,11.33
2018-07-25T02:10:43.320Z,11.20
2018-07-25T02:13:14.550Z,11.47
2018-07-25T02:15:44.579Z,11.40
2018-07-25T02:18:14.335Z,11.20
2018-07-25T02:20:44.156Z,12.03
2018-07-25T02:23:13.899Z,11.00
2018-07-25T02:25:43.715Z,10.87
2018-07-25T02:28:13.548Z,11.57
2018-07-25T02:30:43.375Z,11.70
2018-07-25T02:33:13.258Z,11.30
2018-07-25T02:35:43.069Z,11.50
2018-07-25T02:38:12.932Z,11.30
2018-07-25T02:40:42.748Z,12.20
2018-07-25T02:43:12.583Z,10.87
2018-07-25T02:45:46.604Z,11.13
2018-07-25T02:48:16.890Z,11.20
2018-07-25T02:50:46.756Z,11.37
2018-07-25T02:53:16.592Z,11.37
2018-07-25T02:55:46.383Z,10.50
2018-07-25T02:58:16.264Z,10.90
2018-07-25T03:00:46.196Z,11.10
2018-07-25T03:03:16.031Z,10.90
2018-07-25T03:05:45.865Z,11.00
2018-07-25T03:08:15.692Z,11.10
2018-07-25T03:10:59.755Z,11.17
2018-07-25T03:13:29.551Z,11.30
2018-07-25T03:16:05.143Z,11.43
2018-07-25T03:18:34.996Z,11.50
2018-07-25T03:21:04.954Z,11.33
2018-07-25T03:23:35.588Z,11.40
2018-07-25T03:26:05.431Z,11.43
2018-07-25T03:28:35.284Z,10.67
2018-07-25T03:31:05.043Z,10.87
2018-07-25T03:33:34.887Z,11.43
2018-07-25T03:36:04.736Z,10.57
2018-07-25T03:38:34.551Z,11.43
2018-07-25T03:41:04.327Z,10.97
2018-07-25T03:43:34.148Z,10.67
2018-07-25T03:46:03.975Z,11.00
2018-07-25T03:48:33.750Z,11.33
2018-07-25T03:51:03.547Z,11.10
2018-07-25T03:53:33.383Z,11.37
2018-07-25T03:56:03.177Z,10.77
2018-07-25T03:58:33.032Z,11.73
2018-07-25T04:01:02.867Z,10.87
2018-07-25T04:03:32.741Z,10.97
2018-07-25T04:06:02.620Z,10.90
2018-07-25T04:08:32.479Z,11.60
2018-07-25T04:11:03.584Z,10.90
2018-07-25T04:13:33.353Z,11.17
2018-07-25T04:16:03.188Z,10.60
2018-07-25T04:18:33.060Z,11.10
2018-07-25T04:21:02.892Z,10.83
2018-07-25T04:23:32.689Z,11.10
2018-07-25T04:26:02.544Z,11.43
2018-07-25T04:28:32.397Z,11.10
2018-07-25T04:31:02.239Z,10.77
2018-07-25T04:33:32.104Z,10.63
2018-07-25T04:36:01.887Z,10.57
2018-07-25T04:38:31.784Z,10.70
2018-07-25T04:41:01.592Z,11.30
2018-07-25T04:43:31.416Z,11.03
2018-07-25T04:46:01.273Z,10.40
2018-07-25T04:48:31.151Z,10.53
2018-07-25T04:51:01.008Z,10.13
2018-07-25T04:53:31.444Z,10.47
2018-07-25T04:56:01.324Z,10.77
2018-07-25T04:58:31.237Z,10.90
2018-07-25T05:01:01.128Z,10.03
2018-07-25T05:03:31.016Z,10.03
2018-07-25T05:06:00.759Z,11.30
2018-07-25T05:08:30.596Z,12.70
2018-07-25T05:11:00.485Z,10.60
2018-07-25T05:13:30.254Z,10.23
2018-07-25T05:16:00.088Z,9.97
2018-07-25T05:18:29.935Z,10.47
2018-07-25T05:20:59.739Z,10.70
2018-07-25T05:23:29.605Z,10.80
2018-07-25T05:25:59.364Z,10.50
2018-07-25T05:28:29.258Z,11.10
2018-07-25T05:30:59.146Z,10.37
2018-07-25T05:33:28.940Z,11.23
2018-07-25T05:35:58.906Z,11.23
2018-07-25T05:38:28.820Z,10.97
2018-07-25T05:40:58.723Z,10.93
2018-07-25T05:43:28.647Z,11.33
2018-07-25T05:45:58.448Z,10.40
2018-07-25T05:48:28.366Z,9.87
2018-07-25T05:50:58.184Z,10.43
2018-07-25T05:53:28.039Z,11.20
2018-07-25T05:55:58.022Z,11.00
2018-07-25T05:58:27.929Z,10.37
2018-07-25T06:00:57.859Z,11.53
2018-07-25T06:03:27.737Z,10.00
2018-07-25T06:05:57.670Z,10.90
2018-07-25T06:08:27.597Z,10.23
2018-07-25T06:10:57.564Z,11.20
2018-07-25T06:13:27.449Z,11.03
2018-07-25T06:15:57.337Z,11.27
2018-07-25T06:18:27.343Z,9.90
2018-07-25T06:20:57.296Z,10.13
2018-07-25T06:23:27.056Z,9.70
2018-07-25T06:25:57.342Z,10.70
2018-07-25T06:28:27.697Z,9.30
2018-07-25T06:30:58.100Z,9.70
2018-07-25T06:33:28.397Z,9.40
2018-07-25T06:35:58.302Z,9.13
2018-07-25T06:38:28.359Z,8.87
2018-07-25T06:40:58.518Z,8.20
2018-07-25T06:43:28.595Z,8.53
2018-07-25T06:45:58.799Z,7.60
2018-07-25T06:48:29.554Z,7.57
2018-07-25T06:50:59.635Z,8.50
2018-07-25T06:53:29.572Z,9.10
2018-07-25T06:55:59.590Z,7.40
2018-07-25T06:58:29.383Z,7.97
2018-07-25T07:01:00.712Z,7.03
2018-07-25T07:03:31.681Z,8.20
2018-07-25T07:06:01.470Z,7.87
2018-07-25T07:08:31.946Z,7.30
2018-07-25T07:11:02.219Z,7.70
2018-07-25T07:13:32.049Z,8.20
2018-07-25T07:16:01.943Z,7.97
2018-07-25T07:18:31.912Z,7.43
2018-07-25T07:21:01.780Z,8.13
2018-07-25T07:23:31.711Z,6.93
2018-07-25T07:26:01.588Z,7.40
2018-07-25T07:28:31.429Z,7.23
2018-07-25T07:31:01.344Z,7.07
2018-07-25T07:33:31.930Z,7.37
2018-07-25T07:36:01.793Z,7.40
2018-07-25T07:38:32.458Z,11.30
2018-07-25T07:41:02.333Z,8.40
2018-07-25T07:43:32.276Z,7.13
2018-07-25T07:46:06.337Z,6.90
2018-07-25T07:48:36.638Z,7.50
2018-07-25T07:51:06.615Z,7.87
2018-07-25T07:53:36.692Z,9.63
2018-07-25T07:56:06.516Z,8.20
2018-07-25T07:58:36.530Z,7.20
2018-07-25T08:01:06.400Z,6.70
2018-07-25T08:03:36.213Z,5.73
2018-07-25T08:06:07.501Z,7.30
2018-07-25T08:08:37.350Z,6.53
2018-07-25T08:11:07.247Z,6.90
2018-07-25T08:13:37.131Z,6.20
2018-07-25T08:16:06.931Z,6.83
2018-07-25T08:18:36.791Z,6.40
2018-07-25T08:21:06.987Z,7.00
2018-07-25T08:23:36.899Z,6.63
2018-07-25T08:26:06.816Z,6.60
2018-07-25T08:28:36.697Z,6.77
2018-07-25T08:31:07.079Z,7.13
2018-07-25T08:33:36.971Z,6.87
2018-07-25T08:36:06.728Z,5.93
2018-07-25T08:38:38.330Z,7.23
2018-07-25T08:41:08.296Z,7.83
2018-07-25T08:43:39.295Z,7.10
2018-07-25T08:46:10.254Z,7.57
2018-07-25T08:48:40.344Z,6.97
2018-07-25T08:51:10.061Z,8.40
2018-07-25T08:53:39.931Z,9.40
2018-07-25T08:56:09.832Z,7.00
2018-07-25T08:58:39.667Z,7.50
2018-07-25T09:01:09.492Z,7.03
2018-07-25T09:03:39.335Z,8.07
2018-07-25T09:06:09.125Z,6.90
2018-07-25T09:08:38.940Z,6.80
2018-07-25T09:11:08.896Z,6.90
2018-07-25T09:13:38.701Z,6.70
2018-07-25T09:16:08.546Z,6.90
2018-07-25T09:18:38.319Z,7.97
2018-07-25T09:21:08.170Z,7.20
2018-07-25T09:23:37.943Z,7.33
2018-07-25T09:26:07.754Z,6.83
2018-07-25T09:28:37.580Z,7.90
2018-07-25T09:31:07.547Z,7.50
2018-07-25T09:33:37.422Z,7.07
2018-07-25T09:36:07.208Z,7.17
2018-07-25T09:38:37.011Z,7.20
2018-07-25T09:41:06.859Z,6.53
2018-07-25T09:43:36.617Z,6.80
2018-07-25T09:46:06.480Z,6.57
2018-07-25T09:48:36.404Z,6.23
2018-07-25T09:51:06.304Z,6.00
2018-07-25T09:53:36.089Z,6.03
2018-07-25T09:56:05.945Z,7.80
2018-07-25T09:58:35.852Z,5.40
2018-07-25T10:01:05.865Z,5.50
2018-07-25T10:03:35.526Z,6.00
2018-07-25T10:06:05.393Z,6.03
2018-07-25T10:08:35.252Z,6.83
2018-07-25T10:11:05.266Z,5.13
2018-07-25T10:13:35.095Z,5.57
2018-07-25T10:16:04.954Z,5.97
2018-07-25T10:18:34.727Z,5.67
2018-07-25T10:21:04.616Z,5.87
2018-07-25T10:23:34.539Z,4.77
2018-07-25T10:26:04.474Z,4.40
2018-07-25T10:28:34.362Z,4.70
2018-07-25T10:31:04.100Z,4.10
2018-07-25T10:33:33.871Z,3.77
2018-07-25T10:36:03.848Z,3.50
2018-07-25T10:38:33.607Z,4.63
2018-07-25T10:41:03.363Z,3.83
2018-07-25T10:43:33.345Z,4.63
2018-07-25T10:46:03.124Z,4.40
2018-07-25T10:48:32.859Z,3.93
2018-07-25T10:51:02.665Z,4.17
2018-07-25T10:53:32.423Z,3.80
2018-07-25T10:56:02.471Z,5.20
2018-07-25T10:58:32.143Z,3.50
2018-07-25T11:01:02.020Z,3.40
2018-07-25T11:03:31.887Z,3.30
2018-07-25T11:06:01.712Z,3.50
2018-07-25T11:08:31.494Z,3.73
2018-07-25T11:11:01.367Z,4.77
2018-07-25T11:13:31.200Z,4.90
2018-07-25T11:16:00.987Z,4.70
2018-07-25T11:18:30.796Z,4.80
2018-07-25T11:21:00.697Z,4.93
2018-07-25T11:23:30.655Z,5.03
2018-07-25T11:26:00.604Z,4.97
2018-07-25T11:28:30.504Z,4.80
2018-07-25T11:31:00.367Z,5.23
2018-07-25T11:33:30.236Z,5.00
2018-07-25T11:36:00.156Z,5.10
2018-07-25T11:38:30.051Z,5.60
2018-07-25T11:40:59.863Z,5.10
2018-07-25T11:43:29.811Z,5.10
2018-07-25T11:45:59.688Z,4.20
2018-07-25T11:48:29.495Z,5.10
2018-07-25T11:50:59.622Z,4.83
2018-07-25T11:53:29.541Z,4.47
2018-07-25T11:55:59.415Z,4.67
2018-07-25T11:58:29.205Z,4.33
2018-07-25T12:03:19.132Z,4.70
2018-07-25T12:05:49.071Z,3.47
2018-07-25T12:08:18.877Z,3.27
2018-07-25T12:10:48.765Z,4.07
2018-07-25T12:13:18.618Z,4.37
2018-07-25T12:15:48.424Z,4.40
2018-07-25T12:18:18.239Z,4.23
2018-07-25T12:20:47.998Z,4.10
2018-07-25T12:23:17.847Z,3.97
2018-07-25T12:25:47.644Z,4.40
2018-07-25T12:28:17.507Z,5.03
2018-07-25T12:30:47.288Z,4.87
2018-07-25T12:33:17.340Z,5.83
2018-07-25T12:35:47.109Z,4.07
2018-07-25T12:38:17.837Z,4.43
2018-07-25T12:40:47.615Z,4.53
2018-07-25T12:43:17.453Z,4.27
2018-07-25T12:45:47.206Z,4.43
2018-07-25T12:48:17.173Z,4.13
2018-07-25T12:50:46.984Z,3.80
2018-07-25T12:53:16.804Z,4.07
2018-07-25T12:55:46.512Z,4.03
2018-07-25T12:58:16.422Z,4.10
2018-07-25T13:00:46.186Z,4.67
2018-07-25T13:03:16.125Z,4.60
2018-07-25T13:05:45.961Z,4.00
2018-07-25T13:08:15.852Z,3.90
2018-07-25T13:10:45.717Z,3.20
2018-07-25T13:13:15.596Z,3.70
2018-07-25T13:15:45.444Z,3.20
2018-07-25T13:18:15.346Z,2.13
2018-07-25T13:20:45.187Z,2.50
2018-07-25T13:23:15.084Z,2.80
2018-07-25T13:25:44.916Z,2.70
2018-07-25T13:28:14.924Z,2.80
2018-07-25T13:30:44.735Z,2.93
2018-07-25T13:33:14.891Z,3.33
2018-07-25T13:35:44.778Z,2.87
2018-07-25T13:38:14.699Z,3.53
2018-07-25T13:40:44.481Z,4.13
2018-07-25T13:43:14.413Z,3.80
2018-07-25T13:45:44.291Z,3.70
2018-07-25T13:48:14.075Z,3.80
2018-07-25T13:50:44.356Z,4.10
2018-07-25T13:53:14.376Z,4.17
2018-07-25T13:55:44.251Z,3.50
2018-07-25T13:58:14.131Z,4.20
2018-07-25T14:00:44.049Z,4.27
2018-07-25T14:03:13.907Z,4.23
2018-07-25T14:05:43.830Z,3.97
2018-07-25T14:08:13.795Z,3.57
2018-07-25T14:10:43.556Z,4.43
2018-07-25T14:13:13.419Z,4.57
2018-07-25T14:15:43.302Z,3.90
2018-07-25T14:18:13.568Z,4.23
2018-07-25T14:20:43.308Z,3.67
2018-07-25T14:23:13.178Z,4.13
2018-07-25T14:25:42.977Z,5.57
2018-07-25T14:28:13.258Z,3.90
2018-07-25T14:30:43.376Z,3.90
2018-07-25T14:33:13.673Z,3.73
2018-07-25T14:35:43.472Z,3.50
2018-07-25T14:38:13.291Z,3.70
2018-07-25T14:40:43.184Z,3.40
2018-07-25T14:43:12.995Z,3.83
2018-07-25T14:45:42.823Z,3.40
2018-07-25T14:48:12.700Z,3.40
2018-07-25T14:50:42.477Z,3.13
2018-07-25T14:53:12.367Z,3.23
2018-07-25T14:55:42.139Z,2.90
2018-07-25T14:58:12.421Z,3.30
2018-07-25T15:00:42.175Z,3.90
2018-07-25T15:03:11.951Z,3.37
2018-07-25T15:05:41.771Z,3.40
2018-07-25T15:08:11.636Z,3.47
2018-07-25T15:10:41.458Z,3.27
2018-07-25T15:13:11.295Z,3.40
2018-07-25T15:15:41.094Z,3.13
2018-07-25T15:18:10.940Z,3.23
2018-07-25T15:20:40.736Z,3.50
2018-07-25T15:23:10.599Z,3.00
2018-07-25T15:25:40.363Z,3.33
2018-07-25T15:28:10.185Z,3.37
2018-07-25T15:30:40.115Z,3.30
2018-07-25T15:33:09.920Z,3.13
2018-07-25T15:35:39.799Z,3.13
2018-07-25T15:38:09.619Z,3.17
2018-07-25T15:40:39.361Z,3.00
2018-07-25T15:43:09.268Z,2.80
2018-07-25T15:45:39.179Z,3.27
2018-07-25T15:48:08.960Z,2.87
2018-07-25T15:50:38.731Z,2.87
2018-07-25T15:53:08.632Z,3.37
2018-07-25T15:55:38.508Z,2.73
2018-07-25T15:58:08.327Z,3.20
2018-07-25T16:00:38.143Z,2.80
2018-07-25T16:03:07.978Z,3.03
2018-07-25T16:05:37.935Z,3.20
2018-07-25T16:08:07.719Z,3.33
2018-07-25T16:10:37.574Z,3.00
2018-07-25T16:13:07.562Z,2.90
2018-07-25T16:15:37.315Z,2.80
2018-07-25T16:18:07.256Z,3.20
2018-07-25T16:20:37.075Z,2.60
2018-07-25T16:23:06.930Z,2.60
2018-07-25T16:25:36.779Z,3.00
2018-07-25T16:28:06.815Z,3.57
2018-07-25T16:30:36.728Z,3.03
2018-07-25T16:33:06.549Z,2.80
2018-07-25T16:35:36.308Z,2.80
2018-07-25T16:38:06.384Z,2.47
2018-07-25T16:40:36.204Z,2.87
2018-07-25T16:43:06.151Z,2.70
2018-07-25T16:45:36.117Z,2.60
2018-07-25T16:48:06.109Z,3.13
2018-07-25T16:50:35.970Z,2.50
2018-07-25T16:53:05.771Z,2.70
2018-07-25T16:55:35.569Z,2.87
2018-07-25T16:58:05.583Z,2.80
2018-07-25T17:00:35.362Z,2.87
2018-07-25T17:03:05.691Z,3.23
2018-07-25T17:05:35.494Z,3.40
2018-07-25T17:08:05.300Z,3.50
2018-07-25T17:10:35.127Z,3.03
2018-07-25T17:13:05.008Z,3.60
2018-07-25T17:15:34.823Z,3.73
2018-07-25T17:18:04.626Z,3.87
2018-07-25T17:20:34.452Z,3.93
2018-07-25T17:23:04.195Z,3.70
2018-07-25T17:25:34.103Z,4.50
2018-07-25T17:28:03.899Z,5.77
2018-07-25T17:30:33.654Z,4.60
2018-07-25T17:33:03.528Z,4.20
2018-07-25T17:35:33.328Z,4.47
2018-07-25T17:38:03.180Z,4.83
2018-07-25T17:40:33.047Z,6.37
2018-07-25T17:43:02.897Z,5.27
2018-07-25T17:45:32.620Z,4.90
2018-07-25T17:48:02.531Z,4.23
2018-07-25T17:50:32.355Z,4.43
2018-07-25T17:53:02.097Z,4.77
2018-07-25T17:55:32.152Z,4.50
2018-07-25T17:58:02.179Z,4.17
2018-07-25T18:00:32.039Z,3.33
2018-07-25T18:03:01.837Z,3.77
2018-07-25T18:05:31.637Z,3.33
2018-07-25T18:08:01.378Z,3.40
2018-07-25T18:10:31.164Z,2.90
2018-07-25T18:13:06.023Z,2.90
2018-07-25T18:15:35.839Z,2.57
2018-07-25T18:18:05.599Z,3.10
2018-07-25T18:20:35.432Z,3.30
2018-07-25T18:23:05.228Z,2.60
2018-07-25T18:25:35.141Z,2.30
2018-07-25T18:28:05.099Z,2.70
2018-07-25T18:30:35.011Z,2.73
2018-07-25T18:33:04.747Z,2.60
2018-07-25T18:35:34.567Z,2.83
2018-07-25T18:38:04.359Z,3.00
2018-07-25T18:40:34.191Z,3.10
2018-07-25T18:43:03.982Z,3.23
2018-07-25T18:45:33.760Z,3.40
2018-07-25T18:48:03.486Z,3.00
2018-07-25T18:50:33.293Z,3.30
2018-07-25T18:53:03.176Z,3.40
2018-07-25T18:55:32.891Z,3.90
2018-07-25T18:58:02.702Z,3.37
2018-07-25T19:00:32.451Z,3.73
2018-07-25T19:03:02.331Z,3.50
2018-07-25T19:05:32.423Z,4.20
2018-07-25T19:08:02.831Z,3.60
2018-07-25T19:10:32.647Z,3.00
2018-07-25T19:13:02.669Z,2.60
2018-07-25T19:15:33.535Z,2.90
2018-07-25T19:18:03.287Z,2.43
2018-07-25T19:20:33.088Z,3.17
2018-07-25T19:23:02.789Z,3.73
2018-07-25T19:25:32.544Z,3.37
2018-07-25T19:28:02.308Z,3.03
2018-07-25T19:30:32.084Z,3.50
2018-07-25T19:33:01.831Z,3.90
2018-07-25T19:35:31.583Z,3.90
2018-07-25T19:38:01.391Z,3.50
2018-07-25T19:40:31.189Z,3.70
2018-07-25T19:43:00.975Z,3.60
2018-07-25T19:45:30.855Z,3.90
2018-07-25T19:48:00.649Z,3.87
2018-07-25T19:50:30.476Z,3.97
2018-07-25T19:53:00.228Z,4.00
2018-07-25T19:55:30.009Z,4.30
2018-07-25T19:57:59.742Z,3.87
2018-07-25T20:00:29.550Z,4.20
2018-07-25T20:02:59.233Z,4.50
2018-07-25T20:05:28.985Z,4.67
2018-07-25T20:07:58.723Z,4.80
2018-07-25T20:10:28.612Z,5.07
2018-07-25T20:12:58.401Z,4.60
2018-07-25T20:15:33.353Z,4.60
2018-07-25T20:18:03.271Z,4.30
2018-07-25T20:20:32.962Z,4.73
2018-07-25T20:23:02.714Z,4.27
2018-07-25T20:25:32.467Z,4.67
2018-07-25T20:28:02.211Z,4.67
2018-07-25T20:30:31.999Z,4.83
2018-07-25T20:33:01.778Z,4.83
2018-07-25T20:35:31.588Z,4.63
2018-07-25T20:38:01.400Z,4.40
2018-07-25T20:40:31.228Z,4.37
2018-07-25T20:43:01.068Z,4.57
2018-07-25T20:45:30.856Z,4.30
2018-07-25T20:48:00.603Z,4.67
2018-07-25T20:50:30.303Z,4.70
2018-07-25T20:53:00.105Z,4.47
2018-07-25T20:55:29.800Z,4.53
2018-07-25T20:57:59.590Z,4.40
2018-07-25T21:00:34.644Z,4.37
2018-07-25T21:03:06.356Z,4.87
2018-07-25T21:05:36.305Z,5.00
2018-07-25T21:08:06.147Z,4.67
2018-07-25T21:10:35.916Z,5.37
2018-07-25T21:13:05.664Z,4.97
2018-07-25T21:15:35.480Z,5.10
2018-07-25T21:18:05.464Z,5.10
2018-07-25T21:20:35.240Z,4.60
2018-07-25T21:23:05.003Z,4.80
2018-07-25T21:25:34.755Z,5.10
2018-07-25T21:28:04.584Z,5.10
2018-07-25T21:30:34.423Z,4.20
2018-07-25T21:33:04.142Z,4.40
2018-07-25T21:35:33.890Z,4.50
2018-07-25T21:38:03.695Z,4.23
2018-07-25T21:40:33.496Z,4.00
2018-07-25T21:43:03.267Z,4.17
2018-07-25T21:45:33.055Z,4.53
2018-07-25T21:48:02.795Z,4.30
2018-07-25T21:50:32.542Z,4.47
2018-07-25T21:53:02.336Z,4.00
2018-07-25T21:55:32.124Z,4.20
2018-07-25T21:58:01.901Z,3.97
2018-07-25T22:00:31.688Z,3.93
2018-07-25T22:03:01.508Z,3.97
2018-07-25T22:05:31.228Z,4.47
2018-07-25T22:08:00.972Z,4.10
2018-07-25T22:10:30.675Z,4.10
2018-07-25T22:13:00.496Z,4.40
2018-07-25T22:15:30.256Z,4.10
2018-07-25T22:17:59.999Z,4.30
2018-07-25T22:20:29.847Z,4.40
2018-07-25T22:22:59.624Z,4.67
2018-07-25T22:25:29.367Z,4.57
2018-07-25T22:27:59.084Z,4.40
2018-07-25T22:30:28.909Z,4.47
2018-07-25T22:32:58.566Z,5.10
2018-07-25T22:35:28.332Z,4.70
2018-07-25T22:37:58.151Z,5.10
2018-07-25T22:40:27.927Z,5.27
2018-07-25T22:42:57.631Z,5.00
2018-07-25T22:45:27.374Z,5.30
2018-07-25T22:47:57.138Z,5.20
2018-07-25T22:50:27.006Z,5.50
2018-07-25T22:52:56.739Z,5.17
2018-07-25T22:55:26.551Z,4.97
2018-07-25T22:57:56.250Z,4.67
2018-07-25T23:00:26.079Z,5.03
2018-07-25T23:02:55.783Z,5.47
2018-07-25T23:05:25.531Z,4.97
2018-07-25T23:07:55.281Z,5.40
2018-07-25T23:10:25.032Z,5.30
2018-07-25T23:12:54.923Z,5.33
2018-07-25T23:15:24.643Z,5.70
2018-07-25T23:17:54.445Z,5.60
2018-07-25T23:20:24.183Z,5.73
2018-07-25T23:23:01.052Z,5.70
2018-07-25T23:25:30.919Z,5.63
2018-07-25T23:28:01.018Z,5.33
2018-07-25T23:30:30.727Z,5.37
2018-07-25T23:33:00.549Z,5.00
2018-07-25T23:35:30.264Z,5.60
2018-07-25T23:37:59.987Z,5.80
2018-07-25T23:40:29.790Z,5.80
2018-07-25T23:42:59.512Z,5.57
2018-07-25T23:45:29.275Z,5.77
2018-07-25T23:47:58.996Z,6.20
2018-07-25T23:50:28.780Z,5.97
2018-07-25T23:52:58.490Z,5.67
2018-07-25T23:55:28.218Z,6.13
2018-07-25T23:57:57.939Z,6.60
